createdAt,value
2019-03-20T00:00:22.994Z,0.00
2019-03-20T00:01:22.973Z,0.00
2019-03-20T00:02:22.956Z,0.00
2019-03-20T00:03:22.950Z,0.00
2019-03-20T00:04:22.965Z,0.00
2019-03-20T00:05:22.937Z,0.00
2019-03-20T00:06:22.916Z,0.00
2019-03-20T00:07:22.910Z,0.00
2019-03-20T00:08:22.892Z,0.00
2019-03-20T00:09:22.876Z,0.00
2019-03-20T00:10:22.887Z,0.00
2019-03-20T00:11:22.857Z,0.00
2019-03-20T00:12:22.850Z,0.00
2019-03-20T00:13:22.834Z,0.00
2019-03-20T00:14:22.827Z,0.00
2019-03-20T00:15:22.827Z,0.00
2019-03-20T00:16:22.809Z,0.00
2019-03-20T00:17:22.814Z,0.00
2019-03-20T00:18:22.786Z,0.00
2019-03-20T00:19:22.779Z,0.00
2019-03-20T00:20:22.784Z,0.00
2019-03-20T00:21:22.755Z,0.00
2019-03-20T00:22:22.745Z,0.00
2019-03-20T00:23:22.731Z,0.00
2019-03-20T00:24:22.724Z,0.00
2019-03-20T00:25:22.710Z,0.00
2019-03-20T00:26:22.714Z,0.00
2019-03-20T00:27:22.694Z,0.00
2019-03-20T00:28:22.682Z,0.00
2019-03-20T00:29:22.775Z,0.00
2019-03-20T00:30:22.715Z,0.00
2019-03-20T00:31:22.657Z,0.00
2019-03-20T00:32:22.647Z,0.00
2019-03-20T00:33:22.623Z,0.00
2019-03-20T00:34:22.611Z,0.00
2019-03-20T00:35:22.608Z,0.00
2019-03-20T00:36:22.606Z,0.00
2019-03-20T00:37:22.586Z,0.00
2019-03-20T00:38:22.575Z,0.00
2019-03-20T00:39:22.566Z,0.00
2019-03-20T00:40:22.550Z,0.00
2019-03-20T00:41:22.562Z,0.00
2019-03-20T00:42:22.535Z,0.00
2019-03-20T00:43:22.581Z,0.00
2019-03-20T00:44:22.513Z,0.00
2019-03-20T00:45:22.499Z,0.00
2019-03-20T00:46:22.511Z,0.00
2019-03-20T00:47:22.482Z,0.00
2019-03-20T00:48:22.466Z,0.00
2019-03-20T00:49:22.456Z,0.00
2019-03-20T00:50:22.447Z,0.00
2019-03-20T00:51:22.463Z,0.00
2019-03-20T00:52:22.424Z,0.00
2019-03-20T00:53:22.419Z,0.00
2019-03-20T00:54:22.405Z,0.00
2019-03-20T00:55:22.398Z,0.00
2019-03-20T00:56:22.379Z,0.00
2019-03-20T00:57:22.385Z,0.00
2019-03-20T00:58:22.367Z,0.00
2019-03-20T00:59:22.352Z,0.00
2019-03-20T01:00:22.342Z,0.00
2019-03-20T01:01:22.334Z,0.00
2019-03-20T01:02:22.334Z,0.00
2019-03-20T01:03:22.316Z,0.00
2019-03-20T01:04:22.306Z,0.00
2019-03-20T01:05:22.299Z,0.00
2019-03-20T01:06:22.278Z,0.00
2019-03-20T01:07:22.285Z,0.00
2019-03-20T01:08:22.259Z,0.00
2019-03-20T01:09:22.247Z,0.00
2019-03-20T01:10:22.247Z,0.00
2019-03-20T01:11:22.222Z,0.00
2019-03-20T01:12:22.227Z,0.00
2019-03-20T01:13:22.207Z,0.00
2019-03-20T01:14:22.193Z,0.00
2019-03-20T01:15:22.185Z,0.00
2019-03-20T01:16:22.173Z,0.00
2019-03-20T01:17:22.181Z,0.00
2019-03-20T01:18:22.582Z,0.00
2019-03-20T01:19:22.144Z,0.00
2019-03-20T01:20:22.170Z,0.00
2019-03-20T01:21:22.120Z,0.00
2019-03-20T01:22:22.124Z,0.00
2019-03-20T01:23:22.099Z,0.00
2019-03-20T01:24:22.093Z,0.00
2019-03-20T01:25:22.078Z,0.00
2019-03-20T01:26:22.067Z,0.00
2019-03-20T01:27:22.089Z,0.00
2019-03-20T01:28:22.053Z,0.00
2019-03-20T01:29:22.037Z,0.00
2019-03-20T01:30:22.026Z,0.00
2019-03-20T01:31:22.016Z,0.00
2019-03-20T01:32:21.999Z,0.00
2019-03-20T01:33:22.003Z,0.00
2019-03-20T01:34:21.983Z,0.00
2019-03-20T01:35:24.110Z,0.00
2019-03-20T01:36:21.969Z,0.00
2019-03-20T01:37:21.949Z,0.00
2019-03-20T01:38:21.960Z,0.00
2019-03-20T01:39:21.936Z,0.00
2019-03-20T01:40:21.922Z,0.00
2019-03-20T01:41:21.909Z,0.00
2019-03-20T01:42:21.899Z,0.00
2019-03-20T01:43:21.909Z,0.00
2019-03-20T01:44:21.878Z,0.00
2019-03-20T01:45:21.869Z,0.00
2019-03-20T01:46:21.863Z,0.00
2019-03-20T01:47:21.854Z,0.00
2019-03-20T01:48:21.848Z,0.00
2019-03-20T01:49:21.832Z,0.00
2019-03-20T01:50:21.814Z,0.00
2019-03-20T01:51:21.804Z,0.00
2019-03-20T01:52:21.832Z,0.00
2019-03-20T01:53:21.798Z,0.00
2019-03-20T01:54:21.772Z,0.00
2019-03-20T01:55:21.764Z,0.00
2019-03-20T01:56:21.752Z,0.00
2019-03-20T01:57:21.758Z,0.00
2019-03-20T01:58:21.746Z,0.00
2019-03-20T01:59:21.718Z,0.00
2019-03-20T02:00:21.711Z,0.00
2019-03-20T02:01:21.697Z,0.00
2019-03-20T02:02:21.690Z,0.00
2019-03-20T02:03:21.691Z,0.00
2019-03-20T02:04:21.666Z,0.00
2019-03-20T02:05:21.656Z,0.00
2019-03-20T02:06:21.649Z,0.00
2019-03-20T02:07:21.640Z,0.00
2019-03-20T02:08:21.637Z,0.00
2019-03-20T02:09:21.614Z,0.00
2019-03-20T02:10:21.617Z,0.00
2019-03-20T02:11:21.594Z,0.00
2019-03-20T02:12:21.586Z,0.00
2019-03-20T02:13:21.598Z,0.00
2019-03-20T02:14:21.561Z,0.00
2019-03-20T02:15:21.558Z,0.00
2019-03-20T02:16:21.536Z,0.00
2019-03-20T02:17:21.528Z,0.00
2019-03-20T02:18:21.518Z,0.00
2019-03-20T02:19:21.523Z,0.00
2019-03-20T02:20:21.510Z,0.00
2019-03-20T02:21:21.490Z,0.00
2019-03-20T02:22:21.478Z,0.00
2019-03-20T02:23:21.467Z,0.00
2019-03-20T02:24:21.471Z,0.00
2019-03-20T02:25:21.446Z,0.00
2019-03-20T02:26:21.448Z,0.00
2019-03-20T02:27:21.435Z,0.00
2019-03-20T02:28:21.414Z,0.00
2019-03-20T02:29:21.415Z,0.00
2019-03-20T02:30:21.398Z,0.00
2019-03-20T02:31:21.384Z,0.00
2019-03-20T02:32:21.374Z,0.00
2019-03-20T02:33:21.361Z,0.00
2019-03-20T02:34:21.366Z,0.00
2019-03-20T02:35:21.341Z,0.00
2019-03-20T02:36:21.331Z,0.00
2019-03-20T02:37:21.318Z,0.00
2019-03-20T02:38:21.306Z,0.00
2019-03-20T02:39:21.319Z,0.00
2019-03-20T02:40:21.297Z,0.00
2019-03-20T02:41:21.333Z,0.00
2019-03-20T02:42:21.268Z,0.00
2019-03-20T02:43:21.258Z,0.00
2019-03-20T02:44:21.268Z,0.00
2019-03-20T02:45:21.233Z,0.00
2019-03-20T02:46:21.227Z,0.00
2019-03-20T02:47:21.284Z,0.00
2019-03-20T02:48:21.209Z,0.00
2019-03-20T02:49:21.203Z,0.00
2019-03-20T02:50:21.186Z,0.00
2019-03-20T02:51:21.177Z,0.00
2019-03-20T02:52:21.166Z,0.00
2019-03-20T02:53:21.163Z,0.00
2019-03-20T02:54:21.184Z,0.00
2019-03-20T02:55:21.131Z,0.00
2019-03-20T02:56:21.120Z,0.00
2019-03-20T02:57:21.113Z,0.00
2019-03-20T02:58:21.101Z,0.00
2019-03-20T02:59:21.088Z,0.00
2019-03-20T03:00:21.100Z,0.00
2019-03-20T03:01:21.069Z,0.00
2019-03-20T03:02:21.060Z,0.00
2019-03-20T03:03:21.119Z,0.00
2019-03-20T03:04:21.038Z,0.00
2019-03-20T03:05:21.053Z,0.00
2019-03-20T03:06:21.016Z,0.00
2019-03-20T03:07:21.007Z,0.00
2019-03-20T03:08:21.003Z,0.00
2019-03-20T03:09:20.986Z,0.00
2019-03-20T03:10:20.988Z,0.00
2019-03-20T03:11:20.964Z,0.00
2019-03-20T03:12:20.964Z,0.00
2019-03-20T03:13:20.946Z,0.00
2019-03-20T03:14:20.998Z,0.00
2019-03-20T03:15:22.041Z,0.00
2019-03-20T03:16:20.919Z,0.00
2019-03-20T03:17:20.898Z,0.00
2019-03-20T03:18:20.892Z,0.00
2019-03-20T03:19:20.890Z,0.00
2019-03-20T03:20:20.898Z,0.00
2019-03-20T03:21:20.856Z,0.00
2019-03-20T03:22:20.845Z,0.00
2019-03-20T03:23:20.855Z,0.00
2019-03-20T03:24:20.826Z,0.00
2019-03-20T03:25:20.831Z,0.00
2019-03-20T03:26:20.807Z,0.00
2019-03-20T03:27:20.797Z,0.00
2019-03-20T03:28:20.793Z,0.00
2019-03-20T03:29:20.772Z,0.00
2019-03-20T03:30:20.808Z,0.00
2019-03-20T03:31:20.753Z,0.00
2019-03-20T03:32:20.751Z,0.00
2019-03-20T03:33:20.749Z,0.00
2019-03-20T03:34:20.735Z,0.00
2019-03-20T03:35:20.728Z,0.00
2019-03-20T03:36:21.945Z,0.00
2019-03-20T03:37:20.688Z,0.00
2019-03-20T03:38:20.678Z,0.00
2019-03-20T03:39:20.666Z,0.00
2019-03-20T03:40:20.654Z,0.00
2019-03-20T03:41:20.662Z,0.00
2019-03-20T03:42:20.640Z,0.00
2019-03-20T03:43:23.951Z,0.00
2019-03-20T03:44:20.616Z,0.00
2019-03-20T03:45:20.603Z,0.00
2019-03-20T03:46:20.608Z,0.00
2019-03-20T03:47:20.586Z,0.00
2019-03-20T03:48:20.576Z,0.00
2019-03-20T03:49:20.562Z,0.00
2019-03-20T03:50:20.550Z,0.00
2019-03-20T03:51:20.577Z,0.00
2019-03-20T03:52:20.531Z,0.00
2019-03-20T03:53:20.520Z,0.00
2019-03-20T03:54:20.511Z,0.00
2019-03-20T03:55:20.500Z,0.00
2019-03-20T03:56:20.509Z,0.00
2019-03-20T03:57:20.481Z,0.00
2019-03-20T03:58:20.470Z,0.00
2019-03-20T03:59:20.465Z,0.00
2019-03-20T04:00:20.452Z,0.00
2019-03-20T04:01:20.448Z,0.00
2019-03-20T04:02:20.435Z,0.00
2019-03-20T04:03:20.410Z,0.00
2019-03-20T04:04:20.410Z,0.00
2019-03-20T04:05:20.396Z,0.00
2019-03-20T04:06:34.518Z,0.00
2019-03-20T04:07:23.711Z,0.00
2019-03-20T04:08:20.362Z,0.00
2019-03-20T04:09:20.354Z,0.00
2019-03-20T04:10:20.342Z,0.00
2019-03-20T04:11:20.355Z,0.00
2019-03-20T04:12:20.322Z,0.00
2019-03-20T04:13:20.309Z,0.00
2019-03-20T04:14:20.301Z,0.00
2019-03-20T04:15:20.289Z,0.00
2019-03-20T04:16:20.281Z,0.00
2019-03-20T04:17:20.295Z,0.00
2019-03-20T04:18:20.264Z,0.00
2019-03-20T04:19:20.253Z,0.00
2019-03-20T04:20:20.255Z,0.00
2019-03-20T04:21:20.226Z,0.00
2019-03-20T04:22:20.235Z,0.00
2019-03-20T04:23:20.208Z,0.00
2019-03-20T04:24:20.201Z,0.00
2019-03-20T04:25:20.185Z,0.00
2019-03-20T04:26:20.170Z,0.00
2019-03-20T04:27:20.189Z,0.00
2019-03-20T04:28:20.152Z,0.00
2019-03-20T04:29:20.142Z,0.00
2019-03-20T04:30:20.130Z,0.00
2019-03-20T04:31:20.118Z,0.00
2019-03-20T04:32:20.132Z,0.00
2019-03-20T04:33:20.097Z,0.00
2019-03-20T04:34:20.090Z,0.00
2019-03-20T04:35:20.115Z,0.00
2019-03-20T04:36:20.065Z,0.00
2019-03-20T04:37:20.069Z,0.00
2019-03-20T04:38:20.052Z,0.00
2019-03-20T04:39:20.035Z,0.00
2019-03-20T04:40:20.020Z,0.00
2019-03-20T04:41:20.022Z,0.00
2019-03-20T04:42:20.013Z,0.00
2019-03-20T04:43:19.996Z,0.00
2019-03-20T04:44:19.985Z,0.00
2019-03-20T04:45:19.968Z,0.00
2019-03-20T04:46:19.955Z,0.00
2019-03-20T04:47:19.975Z,0.00
2019-03-20T04:48:19.937Z,0.00
2019-03-20T04:49:19.923Z,0.00
2019-03-20T04:50:19.918Z,0.00
2019-03-20T04:51:19.901Z,0.00
2019-03-20T04:52:19.893Z,0.00
2019-03-20T04:53:19.907Z,0.00
2019-03-20T04:54:19.885Z,0.00
2019-03-20T04:55:19.874Z,0.00
2019-03-20T04:56:19.851Z,0.00
2019-03-20T04:57:19.845Z,0.00
2019-03-20T04:58:19.845Z,0.00
2019-03-20T04:59:19.823Z,0.00
2019-03-20T05:00:19.813Z,0.00
2019-03-20T05:01:19.799Z,12.00
2019-03-20T05:02:19.786Z,16.00
2019-03-20T05:03:19.799Z,16.00
2019-03-20T05:04:19.782Z,20.00
2019-03-20T05:05:19.759Z,20.00
2019-03-20T05:06:19.750Z,24.00
2019-03-20T05:07:19.740Z,28.00
2019-03-20T05:08:19.746Z,32.00
2019-03-20T05:09:19.760Z,36.00
2019-03-20T05:10:19.707Z,36.00
2019-03-20T05:11:19.692Z,44.00
2019-03-20T05:12:19.692Z,44.00
2019-03-20T05:13:19.690Z,52.00
2019-03-20T05:14:19.660Z,52.00
2019-03-20T05:15:19.647Z,60.00
2019-03-20T05:16:19.644Z,64.00
2019-03-20T05:17:19.632Z,68.00
2019-03-20T05:18:19.634Z,72.00
2019-03-20T05:19:19.631Z,76.00
2019-03-20T05:20:19.633Z,84.00
2019-03-20T05:21:19.681Z,88.00
2019-03-20T05:22:19.576Z,96.00
2019-03-20T05:23:19.580Z,100.00
2019-03-20T05:24:19.555Z,108.00
2019-03-20T05:25:19.544Z,108.00
2019-03-20T05:26:19.535Z,116.00
2019-03-20T05:27:19.526Z,120.00
2019-03-20T05:28:19.532Z,124.00
2019-03-20T05:29:19.503Z,128.00
2019-03-20T05:30:19.505Z,136.00
2019-03-20T05:31:19.502Z,140.00
2019-03-20T05:32:19.784Z,148.00
2019-03-20T05:33:19.478Z,152.00
2019-03-20T05:34:19.451Z,160.00
2019-03-20T05:35:19.480Z,160.00
2019-03-20T05:36:19.429Z,168.00
2019-03-20T05:37:19.418Z,172.00
2019-03-20T05:38:19.410Z,176.00
2019-03-20T05:39:19.414Z,184.00
2019-03-20T05:40:19.387Z,188.00
2019-03-20T05:41:19.378Z,192.00
2019-03-20T05:42:19.369Z,196.00
2019-03-20T05:43:19.356Z,200.00
2019-03-20T05:44:19.361Z,204.00
2019-03-20T05:45:19.334Z,212.00
2019-03-20T05:46:19.324Z,212.00
2019-03-20T05:47:19.316Z,216.00
2019-03-20T05:48:19.315Z,224.00
2019-03-20T05:49:19.313Z,224.00
2019-03-20T05:50:19.285Z,228.00
2019-03-20T05:51:19.273Z,236.00
2019-03-20T05:52:19.263Z,240.00
2019-03-20T05:53:19.255Z,244.00
2019-03-20T05:54:19.250Z,248.00
2019-03-20T05:55:19.234Z,312.00
2019-03-20T05:56:19.220Z,316.00
2019-03-20T05:57:19.236Z,316.00
2019-03-20T05:58:19.202Z,320.00
2019-03-20T05:59:19.203Z,324.00
2019-03-20T06:00:19.180Z,324.00
2019-03-20T06:01:19.169Z,324.00
2019-03-20T06:02:19.214Z,328.00
2019-03-20T06:03:19.147Z,328.00
2019-03-20T06:04:19.159Z,332.00
2019-03-20T06:05:19.130Z,332.00
2019-03-20T06:06:19.124Z,336.00
2019-03-20T06:07:21.726Z,340.00
2019-03-20T06:08:19.095Z,344.00
2019-03-20T06:09:19.095Z,344.00
2019-03-20T06:10:19.077Z,348.00
2019-03-20T06:11:19.062Z,348.00
2019-03-20T06:12:19.047Z,352.00
2019-03-20T06:13:19.041Z,352.00
2019-03-20T06:14:19.042Z,356.00
2019-03-20T06:15:19.019Z,360.00
2019-03-20T06:16:19.587Z,360.00
2019-03-20T06:17:19.002Z,364.00
2019-03-20T06:18:18.986Z,368.00
2019-03-20T06:19:18.974Z,368.00
2019-03-20T06:20:18.989Z,372.00
2019-03-20T06:21:18.957Z,372.00
2019-03-20T06:22:18.949Z,372.00
2019-03-20T06:23:18.937Z,376.00
2019-03-20T06:24:18.928Z,372.00
2019-03-20T06:25:21.347Z,328.00
2019-03-20T06:26:18.907Z,328.00
2019-03-20T06:27:18.895Z,328.00
2019-03-20T06:28:18.881Z,332.00
2019-03-20T06:29:20.154Z,332.00
2019-03-20T06:30:18.879Z,332.00
2019-03-20T06:31:18.951Z,336.00
2019-03-20T06:32:18.842Z,336.00
2019-03-20T06:33:18.830Z,340.00
2019-03-20T06:34:18.817Z,344.00
2019-03-20T06:35:18.821Z,340.00
2019-03-20T06:36:18.792Z,344.00
2019-03-20T06:37:18.807Z,344.00
2019-03-20T06:38:18.803Z,348.00
2019-03-20T06:39:18.764Z,348.00
2019-03-20T06:40:18.771Z,352.00
2019-03-20T06:41:18.753Z,352.00
2019-03-20T06:42:18.732Z,352.00
2019-03-20T06:43:18.723Z,356.00
2019-03-20T06:44:18.709Z,356.00
2019-03-20T06:45:18.723Z,356.00
2019-03-20T06:46:18.695Z,360.00
2019-03-20T06:47:18.691Z,360.00
2019-03-20T06:48:18.677Z,368.00
2019-03-20T06:49:18.659Z,368.00
2019-03-20T06:50:18.668Z,372.00
2019-03-20T06:51:18.637Z,376.00
2019-03-20T06:52:18.655Z,380.00
2019-03-20T06:53:18.613Z,380.00
2019-03-20T06:54:18.609Z,380.00
2019-03-20T06:55:18.611Z,380.00
2019-03-20T06:56:18.582Z,384.00
2019-03-20T06:57:18.573Z,380.00
2019-03-20T06:58:18.566Z,380.00
2019-03-20T06:59:18.555Z,380.00
2019-03-20T07:00:18.567Z,380.00
2019-03-20T07:01:18.533Z,380.00
2019-03-20T07:02:18.529Z,380.00
2019-03-20T07:03:18.513Z,384.00
2019-03-20T07:04:18.504Z,384.00
2019-03-20T07:05:18.515Z,388.00
2019-03-20T07:06:18.480Z,388.00
2019-03-20T07:07:18.478Z,388.00
2019-03-20T07:08:18.460Z,388.00
2019-03-20T07:09:18.452Z,392.00
2019-03-20T07:10:18.462Z,392.00
2019-03-20T07:11:18.430Z,392.00
2019-03-20T07:12:18.419Z,392.00
2019-03-20T07:13:18.422Z,396.00
2019-03-20T07:14:18.394Z,400.00
2019-03-20T07:15:18.384Z,396.00
2019-03-20T07:16:18.387Z,400.00
2019-03-20T07:17:18.363Z,400.00
2019-03-20T07:18:18.355Z,400.00
2019-03-20T07:19:18.341Z,404.00
2019-03-20T07:20:18.330Z,404.00
2019-03-20T07:21:18.859Z,408.00
2019-03-20T07:22:18.312Z,408.00
2019-03-20T07:23:18.307Z,412.00
2019-03-20T07:24:18.301Z,412.00
2019-03-20T07:25:18.288Z,416.00
2019-03-20T07:26:18.284Z,416.00
2019-03-20T07:27:18.257Z,416.00
2019-03-20T07:28:18.250Z,420.00
2019-03-20T07:29:18.240Z,424.00
2019-03-20T07:30:18.230Z,424.00
2019-03-20T07:31:18.248Z,424.00
2019-03-20T07:32:18.210Z,428.00
2019-03-20T07:33:18.196Z,428.00
2019-03-20T07:34:18.183Z,428.00
2019-03-20T07:35:18.174Z,428.00
2019-03-20T07:36:18.175Z,432.00
2019-03-20T07:37:18.148Z,432.00
2019-03-20T07:38:18.144Z,436.00
2019-03-20T07:39:18.133Z,436.00
2019-03-20T07:40:18.121Z,440.00
2019-03-20T07:41:18.124Z,440.00
2019-03-20T07:42:18.099Z,440.00
2019-03-20T07:43:18.088Z,440.00
2019-03-20T07:44:18.081Z,440.00
2019-03-20T07:45:18.076Z,444.00
2019-03-20T07:46:18.075Z,448.00
2019-03-20T07:47:18.049Z,448.00
2019-03-20T07:48:22.470Z,452.00
2019-03-20T07:49:18.024Z,460.00
2019-03-20T07:50:18.019Z,456.00
2019-03-20T07:51:18.027Z,452.00
2019-03-20T07:52:17.997Z,452.00
2019-03-20T07:53:17.987Z,460.00
2019-03-20T07:54:17.974Z,464.00
2019-03-20T07:55:17.959Z,472.00
2019-03-20T07:56:17.982Z,476.00
2019-03-20T07:57:17.941Z,488.00
2019-03-20T07:58:17.936Z,496.00
2019-03-20T07:59:17.925Z,508.00
2019-03-20T08:00:17.908Z,520.00
2019-03-20T08:01:20.190Z,528.00
2019-03-20T08:02:17.904Z,536.00
2019-03-20T08:03:17.893Z,548.00
2019-03-20T08:04:17.885Z,572.00
2019-03-20T08:05:28.481Z,600.00
2019-03-20T08:06:18.850Z,620.00
2019-03-20T08:07:17.854Z,656.00
2019-03-20T08:08:17.831Z,696.00
2019-03-20T08:09:17.892Z,732.00
2019-03-20T08:10:17.806Z,768.00
2019-03-20T08:11:17.793Z,804.00
2019-03-20T08:12:17.797Z,776.00
2019-03-20T08:13:17.771Z,736.00
2019-03-20T08:14:17.763Z,684.00
2019-03-20T08:15:17.759Z,632.00
2019-03-20T08:16:17.743Z,588.00
2019-03-20T08:17:17.772Z,564.00
2019-03-20T08:18:17.720Z,556.00
2019-03-20T08:19:17.712Z,552.00
2019-03-20T08:20:17.710Z,540.00
2019-03-20T08:21:17.699Z,528.00
2019-03-20T08:22:17.694Z,516.00
2019-03-20T08:23:17.672Z,516.00
2019-03-20T08:24:17.661Z,516.00
2019-03-20T08:25:17.646Z,512.00
2019-03-20T08:26:17.642Z,508.00
2019-03-20T08:27:17.642Z,496.00
2019-03-20T08:28:17.618Z,468.00
2019-03-20T08:29:17.606Z,496.00
2019-03-20T08:30:17.596Z,504.00
2019-03-20T08:31:17.593Z,508.00
2019-03-20T08:32:17.595Z,508.00
2019-03-20T08:33:17.561Z,500.00
2019-03-20T08:34:17.556Z,500.00
2019-03-20T08:35:17.542Z,500.00
2019-03-20T08:36:17.539Z,504.00
2019-03-20T08:37:17.538Z,508.00
2019-03-20T08:38:18.825Z,508.00
2019-03-20T08:39:17.509Z,468.00
2019-03-20T08:40:17.496Z,468.00
2019-03-20T08:41:17.484Z,436.00
2019-03-20T08:42:17.486Z,444.00
2019-03-20T08:43:17.458Z,504.00
2019-03-20T08:44:17.455Z,496.00
2019-03-20T08:45:17.436Z,524.00
2019-03-20T08:46:17.421Z,524.00
2019-03-20T08:47:17.433Z,528.00
2019-03-20T08:48:17.415Z,532.00
2019-03-20T08:49:17.397Z,536.00
2019-03-20T08:50:17.389Z,536.00
2019-03-20T08:51:17.376Z,536.00
2019-03-20T08:52:17.382Z,532.00
2019-03-20T08:53:17.356Z,532.00
2019-03-20T08:54:17.344Z,532.00
2019-03-20T08:55:17.336Z,532.00
2019-03-20T08:56:17.321Z,528.00
2019-03-20T08:57:17.335Z,524.00
2019-03-20T08:58:17.301Z,516.00
2019-03-20T08:59:18.207Z,512.00
2019-03-20T09:00:17.284Z,508.00
2019-03-20T09:01:27.909Z,504.00
2019-03-20T09:02:18.274Z,496.00
2019-03-20T09:03:17.250Z,492.00
2019-03-20T09:04:17.235Z,488.00
2019-03-20T09:05:17.228Z,488.00
2019-03-20T09:06:17.215Z,488.00
2019-03-20T09:07:17.229Z,484.00
2019-03-20T09:08:17.195Z,488.00
2019-03-20T09:09:17.184Z,488.00
2019-03-20T09:10:17.173Z,492.00
2019-03-20T09:11:17.159Z,500.00
2019-03-20T09:12:17.147Z,500.00
2019-03-20T09:13:17.153Z,504.00
2019-03-20T09:14:17.129Z,508.00
2019-03-20T09:15:17.127Z,512.00
2019-03-20T09:16:17.109Z,508.00
2019-03-20T09:17:17.100Z,512.00
2019-03-20T09:18:17.106Z,520.00
2019-03-20T09:19:17.074Z,516.00
2019-03-20T09:20:17.072Z,516.00
2019-03-20T09:21:17.057Z,516.00
2019-03-20T09:22:17.052Z,520.00
2019-03-20T09:23:17.050Z,520.00
2019-03-20T09:24:17.024Z,524.00
2019-03-20T09:25:17.013Z,528.00
2019-03-20T09:26:17.002Z,524.00
2019-03-20T09:27:17.013Z,528.00
2019-03-20T09:28:17.000Z,532.00
2019-03-20T09:29:18.744Z,536.00
2019-03-20T09:30:16.971Z,536.00
2019-03-20T09:31:16.951Z,536.00
2019-03-20T09:32:16.937Z,536.00
2019-03-20T09:33:16.941Z,536.00
2019-03-20T09:34:16.933Z,540.00
2019-03-20T09:35:16.907Z,540.00
2019-03-20T09:36:16.894Z,544.00
2019-03-20T09:37:16.898Z,548.00
2019-03-20T09:38:16.891Z,552.00
2019-03-20T09:39:16.868Z,560.00
2019-03-20T09:40:16.873Z,564.00
2019-03-20T09:41:16.854Z,564.00
2019-03-20T09:42:16.836Z,576.00
2019-03-20T09:43:16.832Z,572.00
2019-03-20T09:44:16.813Z,588.00
2019-03-20T09:45:16.802Z,612.00
2019-03-20T09:46:16.836Z,628.00
2019-03-20T09:47:16.780Z,648.00
2019-03-20T09:48:16.789Z,664.00
2019-03-20T09:49:16.762Z,692.00
2019-03-20T09:50:16.770Z,748.00
2019-03-20T09:51:16.738Z,732.00
2019-03-20T09:52:16.725Z,736.00
2019-03-20T09:53:16.736Z,736.00
2019-03-20T09:54:16.707Z,728.00
2019-03-20T09:55:16.694Z,736.00
2019-03-20T09:56:16.687Z,748.00
2019-03-20T09:57:16.688Z,756.00
2019-03-20T09:58:16.687Z,772.00
2019-03-20T09:59:16.661Z,768.00
2019-03-20T10:00:16.637Z,772.00
2019-03-20T10:01:16.633Z,772.00
2019-03-20T10:02:16.626Z,772.00
2019-03-20T10:03:16.630Z,756.00
2019-03-20T10:04:16.596Z,744.00
2019-03-20T10:05:16.589Z,736.00
2019-03-20T10:06:16.581Z,716.00
2019-03-20T10:07:16.571Z,700.00
2019-03-20T10:08:16.573Z,672.00
2019-03-20T10:09:16.614Z,668.00
2019-03-20T10:10:16.536Z,652.00
2019-03-20T10:11:16.525Z,644.00
2019-03-20T10:12:16.520Z,628.00
2019-03-20T10:13:16.523Z,620.00
2019-03-20T10:14:16.491Z,592.00
2019-03-20T10:15:16.482Z,592.00
2019-03-20T10:16:16.470Z,616.00
2019-03-20T10:17:17.363Z,608.00
2019-03-20T10:18:16.468Z,604.00
2019-03-20T10:19:16.438Z,584.00
2019-03-20T10:20:16.434Z,572.00
2019-03-20T10:21:16.421Z,544.00
2019-03-20T10:22:16.417Z,504.00
2019-03-20T10:23:16.410Z,492.00
2019-03-20T10:24:16.389Z,528.00
2019-03-20T10:25:16.383Z,564.00
2019-03-20T10:26:16.371Z,572.00
2019-03-20T10:27:16.357Z,596.00
2019-03-20T10:28:16.367Z,600.00
2019-03-20T10:29:16.333Z,620.00
2019-03-20T10:30:16.327Z,632.00
2019-03-20T10:31:16.332Z,640.00
2019-03-20T10:32:16.307Z,644.00
2019-03-20T10:33:16.692Z,644.00
2019-03-20T10:34:16.279Z,648.00
2019-03-20T10:35:16.275Z,644.00
2019-03-20T10:36:16.264Z,648.00
2019-03-20T10:37:16.248Z,652.00
2019-03-20T10:38:16.251Z,660.00
2019-03-20T10:39:16.230Z,660.00
2019-03-20T10:40:16.223Z,660.00
2019-03-20T10:41:16.204Z,672.00
2019-03-20T10:42:16.197Z,684.00
2019-03-20T10:43:16.199Z,696.00
2019-03-20T10:44:16.175Z,708.00
2019-03-20T10:45:16.171Z,736.00
2019-03-20T10:46:16.157Z,776.00
2019-03-20T10:47:16.170Z,820.00
2019-03-20T10:48:16.147Z,888.00
2019-03-20T10:49:16.126Z,960.00
2019-03-20T10:50:16.117Z,900.00
2019-03-20T10:51:16.105Z,840.00
2019-03-20T10:52:16.100Z,796.00
2019-03-20T10:53:16.095Z,820.00
2019-03-20T10:54:16.654Z,828.00
2019-03-20T10:55:16.061Z,844.00
2019-03-20T10:56:16.055Z,856.00
2019-03-20T10:57:16.036Z,880.00
2019-03-20T10:58:16.196Z,920.00
2019-03-20T10:59:16.016Z,964.00
2019-03-20T11:00:16.009Z,972.00
2019-03-20T11:01:15.992Z,1000.00
2019-03-20T11:02:15.984Z,1052.00
2019-03-20T11:03:15.991Z,1108.00
2019-03-20T11:04:15.968Z,1160.00
2019-03-20T11:05:15.957Z,1232.00
2019-03-20T11:06:15.945Z,1236.00
2019-03-20T11:07:15.937Z,1168.00
2019-03-20T11:08:16.195Z,1220.00
2019-03-20T11:09:18.458Z,1312.00
2019-03-20T11:10:15.901Z,1220.00
2019-03-20T11:11:26.464Z,1308.00
2019-03-20T11:12:16.884Z,1360.00
2019-03-20T11:13:15.894Z,1364.00
2019-03-20T11:14:15.857Z,1512.00
2019-03-20T11:15:15.842Z,1620.00
2019-03-20T11:16:15.834Z,1576.00
2019-03-20T11:17:15.838Z,1716.00
2019-03-20T11:18:15.832Z,1776.00
2019-03-20T11:19:15.804Z,1872.00
2019-03-20T11:20:15.797Z,1556.00
2019-03-20T11:21:15.779Z,1400.00
2019-03-20T11:22:18.991Z,1452.00
2019-03-20T11:23:15.783Z,1408.00
2019-03-20T11:24:15.748Z,1548.00
2019-03-20T11:25:15.739Z,1584.00
2019-03-20T11:26:15.732Z,1604.00
2019-03-20T11:27:15.719Z,1492.00
2019-03-20T11:28:15.780Z,1332.00
2019-03-20T11:29:21.268Z,1176.00
2019-03-20T11:30:17.812Z,1180.00
2019-03-20T11:31:15.856Z,1252.00
2019-03-20T11:32:15.766Z,1372.00
2019-03-20T11:33:15.680Z,1336.00
2019-03-20T11:34:15.667Z,1272.00
2019-03-20T11:35:16.645Z,1220.00
2019-03-20T11:36:15.622Z,1256.00
2019-03-20T11:37:15.621Z,1320.00
2019-03-20T11:38:15.603Z,1364.00
2019-03-20T11:39:15.649Z,1464.00
2019-03-20T11:40:15.672Z,1532.00
2019-03-20T11:41:15.571Z,1620.00
2019-03-20T11:42:15.561Z,1772.00
2019-03-20T11:43:15.550Z,1924.00
2019-03-20T11:44:15.588Z,1668.00
2019-03-20T11:45:15.530Z,1404.00
2019-03-20T11:46:16.555Z,1300.00
2019-03-20T11:47:15.509Z,1312.00
2019-03-20T11:48:15.499Z,1384.00
2019-03-20T11:49:15.502Z,1460.00
2019-03-20T11:50:15.482Z,1544.00
2019-03-20T11:51:15.467Z,1640.00
2019-03-20T11:52:15.461Z,1764.00
2019-03-20T11:53:15.445Z,1900.00
2019-03-20T11:54:15.449Z,1904.00
2019-03-20T11:55:15.421Z,1972.00
2019-03-20T11:56:15.439Z,2076.00
2019-03-20T11:57:15.402Z,2232.00
2019-03-20T11:58:15.419Z,2372.00
2019-03-20T11:59:15.395Z,2380.00
2019-03-20T12:00:15.399Z,2224.00
2019-03-20T12:01:15.364Z,2036.00
2019-03-20T12:02:15.349Z,1888.00
2019-03-20T12:03:15.902Z,1876.00
2019-03-20T12:04:15.346Z,2072.00
2019-03-20T12:05:15.336Z,2212.00
2019-03-20T12:06:15.309Z,2208.00
2019-03-20T12:07:15.302Z,2088.00
2019-03-20T12:08:15.297Z,1968.00
2019-03-20T12:09:15.410Z,1960.00
2019-03-20T12:10:15.504Z,2064.00
2019-03-20T12:11:15.982Z,2048.00
2019-03-20T12:12:15.250Z,1936.00
2019-03-20T12:13:15.228Z,1928.00
2019-03-20T12:14:15.239Z,2032.00
2019-03-20T12:15:15.212Z,2004.00
2019-03-20T12:16:15.203Z,1904.00
2019-03-20T12:17:15.200Z,1896.00
2019-03-20T12:18:15.182Z,1892.00
2019-03-20T12:19:15.187Z,1856.00
2019-03-20T12:20:15.157Z,1852.00
2019-03-20T12:21:15.147Z,1936.00
2019-03-20T12:22:15.139Z,1964.00
2019-03-20T12:23:15.127Z,1920.00
2019-03-20T12:24:15.127Z,1800.00
2019-03-20T12:25:15.115Z,1652.00
2019-03-20T12:26:15.099Z,1532.00
2019-03-20T12:27:15.667Z,1464.00
2019-03-20T12:28:15.074Z,1456.00
2019-03-20T12:29:15.082Z,1444.00
2019-03-20T12:30:15.053Z,1452.00
2019-03-20T12:31:15.046Z,1500.00
2019-03-20T12:32:15.035Z,1524.00
2019-03-20T12:33:15.027Z,1516.00
2019-03-20T12:34:15.033Z,1536.00
2019-03-20T12:35:15.003Z,1496.00
2019-03-20T12:36:14.992Z,1484.00
2019-03-20T12:37:14.980Z,1540.00
2019-03-20T12:38:15.552Z,1492.00
2019-03-20T12:39:14.973Z,1444.00
2019-03-20T12:40:14.954Z,1500.00
2019-03-20T12:41:14.937Z,1524.00
2019-03-20T12:42:14.936Z,1532.00
2019-03-20T12:43:14.918Z,1500.00
2019-03-20T12:44:14.924Z,1604.00